Time;durP1;ratioP1;P1;durP2;ratioP2;P2;SDS_P1;SDS_P2;PMS_P1;PMS_P2;Temp;Humidity;BMP_temperature;BMP_pressure;BME280_temperature;BME280_humidity;BME280_pressure;Samples;Min_cycle;Max_cycle;Signal;HPM_P1;HPM_P2
2022/03/22 00:00:55;;;;;;;23.57;20.07;;;;;;;;;;5089828;28;20266;-73
2022/03/22 00:03:25;;;;;;;26.47;20.53;;;;;;;;;;5076056;28;20608;-73
2022/03/22 00:05:58;;;;;;;26.50;20.77;;;;;;;;;;5075494;28;20208;-73
2022/03/22 00:08:26;;;;;;;29.50;22.13;;;;;;;;;;5075887;28;20208;-73
2022/03/22 00:10:56;;;;;;;26.80;20.87;;;;;;;;;;5089160;28;20276;-73
2022/03/22 00:13:25;;;;;;;26.57;20.33;;;;;;;;;;5095094;28;20618;-73
2022/03/22 00:15:56;;;;;;;26.73;21.10;;;;;;;;;;5075944;28;20198;-73
2022/03/22 00:18:46;;;;;;;23.23;19.83;;;;;;;;;;5078895;28;20210;-73
2022/03/22 00:21:15;;;;;;;25.30;20.03;;;;;;;;;;5075601;28;20202;-73
2022/03/22 00:23:43;;;;;;;26.47;21.53;;;;;;;;;;5090417;28;20213;-73
2022/03/22 00:26:13;;;;;;;25.50;21.23;;;;;;;;;;5093592;28;20608;-73
2022/03/22 00:28:41;;;;;;;25.80;21.60;;;;;;;;;;5096028;28;20261;-73
2022/03/22 00:31:10;;;;;;;29.50;21.23;;;;;;;;;;5095600;28;20660;-73
2022/03/22 00:33:38;;;;;;;28.03;22.13;;;;;;;;;;5094616;28;20220;-73
2022/03/22 00:36:07;;;;;;;26.17;20.73;;;;;;;;;;5084489;28;20618;-73
2022/03/22 00:38:35;;;;;;;28.73;22.03;;;;;;;;;;5075407;28;20274;-73
2022/03/22 00:41:04;;;;;;;27.27;22.20;;;;;;;;;;5075074;28;20203;-73
2022/03/22 00:43:34;;;;;;;27.97;21.53;;;;;;;;;;5074945;28;20205;-73
2022/03/22 00:46:03;;;;;;;25.80;20.97;;;;;;;;;;5074191;28;20216;-73
2022/03/22 00:48:32;;;;;;;26.67;20.93;;;;;;;;;;5074919;28;20259;-73
2022/03/22 00:51:00;;;;;;;30.43;22.77;;;;;;;;;;5074678;28;20206;-73
2022/03/22 00:53:29;;;;;;;28.30;22.63;;;;;;;;;;5074345;28;20221;-73
2022/03/22 00:55:57;;;;;;;26.73;21.40;;;;;;;;;;5075145;28;20233;-73
2022/03/22 00:58:25;;;;;;;28.80;21.47;;;;;;;;;;5074965;28;20249;-73
2022/03/22 01:00:56;;;;;;;25.27;21.77;;;;;;;;;;5074347;28;20601;-73
2022/03/22 01:03:27;;;;;;;25.97;21.60;;;;;;;;;;5074465;28;20210;-73
2022/03/22 01:05:55;;;;;;;26.63;21.10;;;;;;;;;;5074684;28;20234;-73
2022/03/22 01:08:24;;;;;;;26.83;22.10;;;;;;;;;;5074348;28;20273;-73
2022/03/22 01:10:53;;;;;;;26.63;20.93;;;;;;;;;;5074735;28;20198;-73
2022/03/22 01:13:22;;;;;;;26.83;21.20;;;;;;;;;;5073936;28;20224;-73
2022/03/22 01:15:50;;;;;;;26.67;21.63;;;;;;;;;;5074707;28;20233;-73
2022/03/22 01:18:21;;;;;;;28.07;21.10;;;;;;;;;;5073959;28;20229;-73
2022/03/22 01:20:50;;;;;;;24.17;21.00;;;;;;;;;;5089643;28;20207;-73
2022/03/22 01:23:20;;;;;;;23.63;20.33;;;;;;;;;;5082026;28;20659;-73
2022/03/22 01:25:49;;;;;;;27.47;20.53;;;;;;;;;;5082732;28;20212;-73
2022/03/22 01:28:18;;;;;;;28.53;21.50;;;;;;;;;;5094316;28;20235;-73
2022/03/22 01:30:46;;;;;;;29.70;21.97;;;;;;;;;;5078926;28;20208;-73
2022/03/22 01:33:15;;;;;;;25.50;20.77;;;;;;;;;;5073895;28;20232;-73
2022/03/22 01:35:45;;;;;;;26.33;20.70;;;;;;;;;;5074012;28;20305;-73
2022/03/22 01:38:13;;;;;;;26.53;20.57;;;;;;;;;;5074020;28;20228;-73
2022/03/22 01:40:42;;;;;;;27.03;21.37;;;;;;;;;;5073773;28;20205;-73
2022/03/22 01:43:11;;;;;;;25.43;20.93;;;;;;;;;;5076265;28;20653;-73
2022/03/22 01:45:39;;;;;;;27.30;21.33;;;;;;;;;;5078517;28;20264;-73
2022/03/22 01:48:08;;;;;;;27.87;21.63;;;;;;;;;;5073982;28;20232;-73
2022/03/22 01:50:36;;;;;;;26.70;20.80;;;;;;;;;;5073697;28;20276;-73
2022/03/22 01:53:09;;;;;;;25.87;20.47;;;;;;;;;;5081813;28;20224;-73
2022/03/22 01:55:37;;;;;;;28.23;20.90;;;;;;;;;;5092376;28;20199;-73
2022/03/22 01:58:06;;;;;;;25.70;20.87;;;;;;;;;;5091872;28;20280;-72
2022/03/22 02:00:34;;;;;;;26.17;20.33;;;;;;;;;;5081722;28;20256;-73
2022/03/22 02:05:58;;;;;;;24.47;19.50;;;;;;;;;;5077326;28;20202;-73
2022/03/22 02:08:28;;;;;;;26.50;20.20;;;;;;;;;;5091863;28;20255;-73
2022/03/22 02:10:58;;;;;;;24.50;19.93;;;;;;;;;;5073145;28;20195;-73
2022/03/22 02:13:26;;;;;;;26.57;20.70;;;;;;;;;;5082146;28;20580;-73
2022/03/22 02:15:56;;;;;;;25.57;20.33;;;;;;;;;;5071374;28;20207;-73
2022/03/22 02:18:25;;;;;;;25.07;20.00;;;;;;;;;;5072495;28;20222;-73
2022/03/22 02:20:54;;;;;;;27.20;20.83;;;;;;;;;;5074011;28;20206;-73
2022/03/22 02:23:25;;;;;;;24.50;19.30;;;;;;;;;;5073081;28;20191;-73
2022/03/22 02:25:55;;;;;;;28.53;20.93;;;;;;;;;;5073437;28;20266;-73
2022/03/22 02:28:23;;;;;;;24.07;19.93;;;;;;;;;;5072917;28;20221;-73
2022/03/22 02:30:53;;;;;;;24.90;19.80;;;;;;;;;;5085535;28;20252;-73
2022/03/22 02:33:21;;;;;;;30.00;22.30;;;;;;;;;;5085604;28;20317;-73
2022/03/22 02:35:50;;;;;;;28.03;22.30;;;;;;;;;;5082936;28;20205;-73
2022/03/22 02:38:18;;;;;;;28.03;21.23;;;;;;;;;;5092395;28;20226;-73
2022/03/22 02:40:47;;;;;;;25.97;20.67;;;;;;;;;;5073505;28;20233;-73
2022/03/22 02:43:16;;;;;;;26.60;20.60;;;;;;;;;;5079550;28;20263;-73
2022/03/22 02:45:46;;;;;;;26.50;21.13;;;;;;;;;;5093146;28;20206;-73
2022/03/22 02:48:15;;;;;;;26.23;20.33;;;;;;;;;;5091139;28;20220;-73
2022/03/22 02:50:43;;;;;;;25.53;20.70;;;;;;;;;;5086570;28;20207;-73
2022/03/22 02:53:12;;;;;;;25.57;19.30;;;;;;;;;;5074732;28;20228;-73
2022/03/22 02:55:40;;;;;;;26.50;19.50;;;;;;;;;;5092737;28;20652;-73
2022/03/22 02:58:08;;;;;;;24.40;19.10;;;;;;;;;;5090199;28;20640;-73
2022/03/22 03:00:38;;;;;;;26.83;20.07;;;;;;;;;;5079505;28;20202;-73
2022/03/22 03:03:07;;;;;;;25.50;18.80;;;;;;;;;;5079282;28;20202;-73
2022/03/22 03:05:35;;;;;;;24.47;19.33;;;;;;;;;;5081095;28;20207;-73
2022/03/22 03:08:04;;;;;;;25.50;18.93;;;;;;;;;;5083959;28;20229;-73
2022/03/22 03:10:32;;;;;;;25.43;20.23;;;;;;;;;;5075689;28;20279;-73
2022/03/22 03:13:01;;;;;;;24.20;19.00;;;;;;;;;;5091712;28;20614;-73
2022/03/22 03:15:30;;;;;;;26.37;20.50;;;;;;;;;;5092647;28;20221;-73
2022/03/22 03:18:00;;;;;;;24.70;19.17;;;;;;;;;;5091309;28;20215;-73
2022/03/22 03:20:29;;;;;;;24.00;19.20;;;;;;;;;;5071679;28;20205;-73
2022/03/22 03:22:58;;;;;;;26.27;19.87;;;;;;;;;;5089690;28;20202;-73
2022/03/22 03:25:26;;;;;;;26.00;20.27;;;;;;;;;;5092350;28;20255;-73
2022/03/22 03:27:55;;;;;;;24.37;19.17;;;;;;;;;;5086885;28;20689;-73
2022/03/22 03:30:23;;;;;;;24.83;19.87;;;;;;;;;;5080899;28;20194;-73
2022/03/22 03:32:52;;;;;;;25.87;20.07;;;;;;;;;;5096436;28;20285;-73
2022/03/22 03:35:21;;;;;;;24.67;19.63;;;;;;;;;;5079106;28;20568;-73
2022/03/22 03:37:50;;;;;;;25.13;19.13;;;;;;;;;;5076473;28;20234;-73
2022/03/22 03:40:18;;;;;;;24.17;19.93;;;;;;;;;;5076163;28;20194;-73
2022/03/22 03:42:46;;;;;;;25.13;19.57;;;;;;;;;;5092481;28;20221;-73
2022/03/22 03:48:01;;;;;;;25.10;20.07;;;;;;;;;;5086773;28;20222;-73
2022/03/22 03:50:31;;;;;;;24.60;19.43;;;;;;;;;;5090095;28;20230;-73
2022/03/22 03:53:00;;;;;;;24.97;18.80;;;;;;;;;;5093986;28;20207;-73
2022/03/22 03:55:28;;;;;;;23.17;19.00;;;;;;;;;;5095856;28;20628;-73
2022/03/22 03:57:57;;;;;;;21.87;18.73;;;;;;;;;;5096080;28;20213;-73
2022/03/22 04:00:25;;;;;;;23.87;19.10;;;;;;;;;;5086696;28;20589;-73
2022/03/22 04:02:54;;;;;;;25.07;19.30;;;;;;;;;;5081093;28;20230;-73
2022/03/22 04:05:23;;;;;;;27.30;19.73;;;;;;;;;;5090779;28;20199;-73
2022/03/22 04:07:52;;;;;;;25.90;20.13;;;;;;;;;;5095767;28;20237;-73
2022/03/22 04:10:21;;;;;;;23.50;18.73;;;;;;;;;;5094652;28;20260;-73
2022/03/22 04:12:49;;;;;;;23.90;19.50;;;;;;;;;;5079780;28;20198;-73
2022/03/22 04:15:17;;;;;;;26.00;19.83;;;;;;;;;;5091917;28;20217;-73
2022/03/22 04:17:46;;;;;;;25.97;20.10;;;;;;;;;;5083000;28;20719;-73
2022/03/22 04:20:14;;;;;;;26.00;20.23;;;;;;;;;;5083336;28;20550;-73
2022/03/22 04:22:43;;;;;;;26.63;19.53;;;;;;;;;;5076010;28;20206;-73
2022/03/22 04:25:13;;;;;;;24.27;18.63;;;;;;;;;;5089468;28;20202;-73
2022/03/22 04:33:13;;;;;;;28.47;20.80;;;;;;;;;;5079806;28;21483;-73
2022/03/22 04:35:41;;;;;;;25.40;20.33;;;;;;;;;;5089148;28;20216;-73
2022/03/22 04:38:10;;;;;;;24.47;18.97;;;;;;;;;;5085863;28;20221;-73
2022/03/22 04:40:40;;;;;;;25.83;20.17;;;;;;;;;;5093821;28;20278;-73
2022/03/22 04:43:09;;;;;;;25.93;19.90;;;;;;;;;;5079927;28;20200;-73
2022/03/22 04:45:37;;;;;;;26.23;19.83;;;;;;;;;;5092430;28;20274;-73
2022/03/22 04:48:06;;;;;;;27.03;19.67;;;;;;;;;;5095150;28;20236;-73
2022/03/22 04:50:34;;;;;;;26.83;19.70;;;;;;;;;;5080556;28;20210;-73
2022/03/22 04:58:37;;;;;;;23.40;18.30;;;;;;;;;;5095558;28;20202;-72
2022/03/22 05:01:05;;;;;;;23.97;19.47;;;;;;;;;;5075372;28;20723;-73
2022/03/22 05:03:34;;;;;;;24.13;19.07;;;;;;;;;;5074086;28;20217;-73
2022/03/22 05:08:49;;;;;;;24.27;19.43;;;;;;;;;;5074210;28;20205;-73
2022/03/22 05:11:18;;;;;;;23.83;19.27;;;;;;;;;;5074125;28;20213;-73
2022/03/22 05:13:47;;;;;;;25.50;19.47;;;;;;;;;;5074414;28;20210;-73
2022/03/22 05:16:15;;;;;;;25.03;19.57;;;;;;;;;;5073503;28;20286;-73
2022/03/22 05:18:44;;;;;;;29.40;22.23;;;;;;;;;;5073801;28;20634;-73
2022/03/22 05:21:13;;;;;;;23.40;19.20;;;;;;;;;;5073865;28;20209;-73
2022/03/22 05:23:42;;;;;;;26.83;19.47;;;;;;;;;;5081432;28;20202;-73
2022/03/22 05:26:10;;;;;;;25.27;19.93;;;;;;;;;;5073519;28;20198;-74
2022/03/22 05:28:40;;;;;;;25.97;19.93;;;;;;;;;;5072357;28;20218;-74
2022/03/22 05:31:11;;;;;;;24.00;18.87;;;;;;;;;;5073473;28;20239;-73
2022/03/22 05:33:40;;;;;;;24.23;19.70;;;;;;;;;;5082480;28;20193;-73
2022/03/22 05:36:09;;;;;;;24.43;19.33;;;;;;;;;;5081627;28;20287;-74
2022/03/22 05:38:38;;;;;;;27.67;19.77;;;;;;;;;;5073680;28;20206;-73
2022/03/22 05:41:08;;;;;;;25.33;19.70;;;;;;;;;;5073798;28;20715;-74
2022/03/22 05:43:37;;;;;;;27.53;19.63;;;;;;;;;;5073175;28;20255;-74
2022/03/22 05:46:08;;;;;;;27.00;19.00;;;;;;;;;;5077959;28;20224;-74
2022/03/22 05:48:38;;;;;;;28.40;19.43;;;;;;;;;;5072790;28;20236;-73
2022/03/22 05:51:07;;;;;;;27.10;19.53;;;;;;;;;;5075460;28;20209;-73
2022/03/22 05:53:36;;;;;;;27.73;19.20;;;;;;;;;;5079032;28;20205;-73
2022/03/22 05:56:04;;;;;;;29.17;19.63;;;;;;;;;;5075992;28;20221;-73
2022/03/22 05:58:34;;;;;;;26.80;19.10;;;;;;;;;;5076096;28;20208;-73
2022/03/22 06:01:02;;;;;;;24.40;18.57;;;;;;;;;;5077764;28;20220;-73
2022/03/22 06:03:33;;;;;;;27.50;18.97;;;;;;;;;;5073137;28;20205;-73
2022/03/22 06:06:01;;;;;;;23.60;18.47;;;;;;;;;;5074346;28;20260;-73
2022/03/22 06:08:30;;;;;;;27.33;19.03;;;;;;;;;;5077470;28;20205;-73
2022/03/22 06:10:59;;;;;;;25.73;19.13;;;;;;;;;;5087691;28;20233;-73
2022/03/22 06:13:27;;;;;;;24.30;17.70;;;;;;;;;;5077676;28;20255;-73
2022/03/22 06:15:55;;;;;;;25.60;18.70;;;;;;;;;;5086241;28;20224;-73
2022/03/22 06:18:24;;;;;;;24.43;19.20;;;;;;;;;;5087118;28;20243;-73
2022/03/22 06:20:54;;;;;;;28.70;20.43;;;;;;;;;;5084439;28;20255;-73
2022/03/22 06:23:23;;;;;;;25.77;19.57;;;;;;;;;;5078603;28;20300;-73
2022/03/22 06:25:51;;;;;;;28.27;19.40;;;;;;;;;;5081226;28;20201;-72
2022/03/22 06:28:20;;;;;;;25.80;18.90;;;;;;;;;;5072693;28;20238;-73
2022/03/22 06:30:48;;;;;;;25.03;19.47;;;;;;;;;;5078564;28;20217;-73
2022/03/22 06:33:17;;;;;;;23.30;18.67;;;;;;;;;;5091215;28;20235;-73
2022/03/22 06:35:47;;;;;;;25.73;19.67;;;;;;;;;;4725005;28;10000001;-73
2022/03/22 06:38:17;;;;;;;22.43;18.47;;;;;;;;;;5074525;28;20225;-73
2022/03/22 06:40:48;;;;;;;25.93;20.53;;;;;;;;;;5076764;28;20234;-73
2022/03/22 06:43:17;;;;;;;28.80;20.07;;;;;;;;;;5078285;28;20225;-73
2022/03/22 06:45:46;;;;;;;27.30;20.00;;;;;;;;;;5081205;28;20582;-74
2022/03/22 06:48:15;;;;;;;25.97;20.03;;;;;;;;;;5072846;28;20222;-73
2022/03/22 06:50:47;;;;;;;29.00;20.40;;;;;;;;;;5072872;28;20673;-73
2022/03/22 06:53:15;;;;;;;28.67;19.97;;;;;;;;;;5073273;28;20192;-73
2022/03/22 06:55:45;;;;;;;30.20;21.30;;;;;;;;;;5072837;28;20264;-73
2022/03/22 06:58:14;;;;;;;31.03;20.77;;;;;;;;;;5073177;28;20231;-73
2022/03/22 07:00:46;;;;;;;28.57;20.90;;;;;;;;;;5072959;28;20233;-73
2022/03/22 07:03:15;;;;;;;27.43;20.40;;;;;;;;;;5076103;28;20198;-73
2022/03/22 07:05:46;;;;;;;27.10;19.97;;;;;;;;;;5077610;28;20193;-73
2022/03/22 07:08:14;;;;;;;23.90;18.67;;;;;;;;;;5076846;28;20253;-73
2022/03/22 07:11:47;;;;;;;24.30;18.30;;;;;;;;;;5077221;28;20209;-73
2022/03/22 07:13:34;;;;;;;29.03;19.00;;;;;;;;;;5081646;28;20194;-73
2022/03/22 07:16:02;;;;;;;22.83;17.70;;;;;;;;;;5087506;28;20268;-73
2022/03/22 07:18:31;;;;;;;24.73;17.80;;;;;;;;;;5077153;28;20213;-73
2022/03/22 07:21:04;;;;;;;25.93;17.80;;;;;;;;;;5076816;28;20301;-73
2022/03/22 07:23:33;;;;;;;25.83;18.27;;;;;;;;;;5080387;28;20252;-73
2022/03/22 07:26:03;;;;;;;24.03;18.33;;;;;;;;;;5097107;28;20209;-73
2022/03/22 07:28:32;;;;;;;24.27;19.13;;;;;;;;;;5097088;28;20210;-73
2022/03/22 07:31:01;;;;;;;26.03;19.27;;;;;;;;;;5097124;28;20198;-73
2022/03/22 07:33:29;;;;;;;24.40;17.47;;;;;;;;;;5096270;28;20206;-74
2022/03/22 07:35:58;;;;;;;23.93;17.10;;;;;;;;;;5087795;28;20229;-73
2022/03/22 07:38:26;;;;;;;23.20;16.63;;;;;;;;;;5080464;28;20200;-73
2022/03/22 07:40:54;;;;;;;27.33;17.00;;;;;;;;;;5076435;28;20262;-73
2022/03/22 07:43:24;;;;;;;20.20;16.13;;;;;;;;;;5076114;28;20218;-74
2022/03/22 07:45:53;;;;;;;22.80;16.97;;;;;;;;;;5081826;28;20245;-73
2022/03/22 07:48:21;;;;;;;24.43;17.27;;;;;;;;;;5096682;28;20209;-73
2022/03/22 07:53:36;;;;;;;25.30;17.43;;;;;;;;;;5096541;28;20208;-74
2022/03/22 07:56:04;;;;;;;23.43;16.50;;;;;;;;;;5096339;28;20230;-73
2022/03/22 07:58:34;;;;;;;25.47;17.47;;;;;;;;;;5095692;28;20201;-73
2022/03/22 08:01:02;;;;;;;24.43;17.07;;;;;;;;;;5096442;28;20205;-73
2022/03/22 08:03:31;;;;;;;24.40;16.43;;;;;;;;;;5096198;28;20197;-73
2022/03/22 08:06:00;;;;;;;21.23;16.23;;;;;;;;;;5087188;28;20202;-74
2022/03/22 08:08:28;;;;;;;25.80;16.50;;;;;;;;;;5095477;28;20201;-73
2022/03/22 08:11:01;;;;;;;21.10;16.50;;;;;;;;;;5077180;28;20327;-73
2022/03/22 08:13:29;;;;;;;20.40;15.97;;;;;;;;;;5093903;28;20657;-73
2022/03/22 08:16:00;;;;;;;21.87;16.40;;;;;;;;;;5080823;28;20197;-73
2022/03/22 08:18:29;;;;;;;19.40;16.43;;;;;;;;;;5087240;28;20213;-73
2022/03/22 08:20:57;;;;;;;20.30;15.90;;;;;;;;;;5076861;28;20210;-73
2022/03/22 08:23:25;;;;;;;20.13;16.83;;;;;;;;;;5075186;28;20213;-73
2022/03/22 08:25:54;;;;;;;23.27;16.73;;;;;;;;;;5082615;28;20209;-73
2022/03/22 08:28:23;;;;;;;17.80;15.30;;;;;;;;;;5095816;28;20633;-73
2022/03/22 08:30:52;;;;;;;20.13;16.43;;;;;;;;;;5095678;28;20209;-73
2022/03/22 08:33:22;;;;;;;17.60;15.70;;;;;;;;;;5094526;28;20208;-74
2022/03/22 08:35:52;;;;;;;18.17;16.17;;;;;;;;;;5081513;28;20595;-73
2022/03/22 08:38:21;;;;;;;18.57;15.77;;;;;;;;;;5075007;28;20693;-74
2022/03/22 08:40:50;;;;;;;20.30;16.20;;;;;;;;;;5075860;28;20252;-73
2022/03/22 08:43:19;;;;;;;18.57;16.07;;;;;;;;;;5075482;28;20256;-74
2022/03/22 08:45:47;;;;;;;17.60;15.60;;;;;;;;;;5075337;28;20217;-73
2022/03/22 08:48:16;;;;;;;20.13;15.60;;;;;;;;;;5078113;28;20263;-74
2022/03/22 08:50:47;;;;;;;17.93;15.80;;;;;;;;;;5095391;28;20263;-73
2022/03/22 08:53:16;;;;;;;19.53;15.20;;;;;;;;;;5092804;28;20208;-74
2022/03/22 08:55:51;;;;;;;19.07;15.47;;;;;;;;;;5076160;28;20194;-73
2022/03/22 08:58:19;;;;;;;17.77;14.83;;;;;;;;;;5074675;28;20234;-74
2022/03/22 09:00:48;;;;;;;18.63;15.43;;;;;;;;;;5074836;28;20203;-73
2022/03/22 09:03:19;;;;;;;16.73;14.43;;;;;;;;;;5074896;28;20286;-74
2022/03/22 09:08:36;;;;;;;18.33;15.60;;;;;;;;;;5074401;28;20191;-73
2022/03/22 09:11:04;;;;;;;18.57;16.37;;;;;;;;;;5074806;28;20209;-73
2022/03/22 09:13:38;;;;;;;17.87;15.97;;;;;;;;;;5074442;28;20202;-74
2022/03/22 09:16:12;;;;;;;18.77;15.27;;;;;;;;;;5074390;28;20662;-74
2022/03/22 09:18:41;;;;;;;17.60;15.37;;;;;;;;;;5074416;28;20225;-73
2022/03/22 09:21:11;;;;;;;16.83;14.77;;;;;;;;;;5074430;28;20599;-74
2022/03/22 09:23:40;;;;;;;17.20;14.60;;;;;;;;;;5073626;28;20198;-73
2022/03/22 09:26:09;;;;;;;18.50;15.20;;;;;;;;;;5073167;28;20547;-74
2022/03/22 09:28:38;;;;;;;18.23;15.93;;;;;;;;;;5073960;28;20297;-74
2022/03/22 09:31:07;;;;;;;17.50;15.63;;;;;;;;;;5074298;28;20255;-74
2022/03/22 09:33:36;;;;;;;16.87;14.80;;;;;;;;;;5074067;28;20286;-74
2022/03/22 09:36:08;;;;;;;18.75;14.43;;;;;;;;;;5074127;28;20198;-74
2022/03/22 09:38:38;;;;;;;18.40;15.68;;;;;;;;;;5073596;28;20992;-74
2022/03/22 09:41:07;;;;;;;17.45;14.70;;;;;;;;;;5074200;28;20190;-75
2022/03/22 09:43:37;;;;;;;18.52;14.93;;;;;;;;;;5073667;28;20288;-75
2022/03/22 09:46:05;;;;;;;17.88;14.75;;;;;;;;;;5073309;28;20260;-75
2022/03/22 09:48:34;;;;;;;22.02;16.20;;;;;;;;;;5073948;28;20191;-75
2022/03/22 09:53:52;;;;;;;17.00;14.90;;;;;;;;;;5073364;28;20256;-74
2022/03/22 09:56:26;;;;;;;18.92;15.43;;;;;;;;;;5073986;28;20222;-73
2022/03/22 09:58:54;;;;;;;20.30;15.20;;;;;;;;;;5073490;28;20283;-76
2022/03/22 10:01:22;;;;;;;16.92;14.93;;;;;;;;;;5073834;28;20202;-75
2022/03/22 10:03:58;;;;;;;17.67;15.73;;;;;;;;;;5073659;28;20198;-77
2022/03/22 10:06:26;;;;;;;17.40;15.23;;;;;;;;;;5073684;28;20693;-75
2022/03/22 10:08:56;;;;;;;17.02;15.23;;;;;;;;;;5073413;28;20213;-75
2022/03/22 10:11:35;;;;;;;18.83;15.70;;;;;;;;;;5073677;28;20206;-75
2022/03/22 10:14:04;;;;;;;19.08;15.65;;;;;;;;;;5073387;28;20194;-74
2022/03/22 10:16:33;;;;;;;18.98;15.27;;;;;;;;;;5073047;28;20214;-74
2022/03/22 10:19:01;;;;;;;19.35;15.10;;;;;;;;;;5073126;28;20257;-74
2022/03/22 10:21:30;;;;;;;18.45;15.23;;;;;;;;;;5073221;28;20248;-75
2022/03/22 10:23:59;;;;;;;17.90;15.48;;;;;;;;;;5073283;28;20232;-74
2022/03/22 10:26:33;;;;;;;16.52;14.70;;;;;;;;;;5072920;28;20210;-75
2022/03/22 10:29:02;;;;;;;21.65;15.55;;;;;;;;;;5073548;28;20316;-74
2022/03/22 10:31:34;;;;;;;18.05;15.23;;;;;;;;;;5073241;28;20198;-75
2022/03/22 10:34:04;;;;;;;16.90;15.10;;;;;;;;;;5072577;28;20267;-75
2022/03/22 10:36:35;;;;;;;17.95;15.95;;;;;;;;;;5072493;28;20218;-74
2022/03/22 10:39:06;;;;;;;17.08;15.32;;;;;;;;;;5073609;28;20353;-75
2022/03/22 10:41:39;;;;;;;20.15;15.50;;;;;;;;;;5073019;28;20252;-74
2022/03/22 10:44:08;;;;;;;18.35;15.88;;;;;;;;;;5072582;28;20202;-75
2022/03/22 10:46:38;;;;;;;17.02;15.07;;;;;;;;;;5072469;28;20697;-74
2022/03/22 10:49:09;;;;;;;19.42;15.60;;;;;;;;;;5072537;28;20187;-75
2022/03/22 10:51:44;;;;;;;16.10;14.15;;;;;;;;;;5083653;28;20307;-75
2022/03/22 10:54:15;;;;;;;17.77;15.15;;;;;;;;;;5087325;28;20201;-74
2022/03/22 10:56:47;;;;;;;19.98;15.85;;;;;;;;;;5072306;28;20229;-75
2022/03/22 10:59:16;;;;;;;18.45;15.02;;;;;;;;;;5072674;28;20218;-75
2022/03/22 11:01:45;;;;;;;20.08;14.55;;;;;;;;;;5073106;28;20206;-75
2022/03/22 11:04:16;;;;;;;16.55;14.35;;;;;;;;;;5072758;28;20206;-75
2022/03/22 11:06:46;;;;;;;18.10;14.30;;;;;;;;;;5072723;28;20578;-75
2022/03/22 11:09:17;;;;;;;19.13;14.82;;;;;;;;;;5072523;28;20684;-75
2022/03/22 11:11:45;;;;;;;16.52;13.70;;;;;;;;;;5072818;28;20213;-75
2022/03/22 11:14:14;;;;;;;16.35;13.70;;;;;;;;;;5072292;28;20339;-75
2022/03/22 11:16:46;;;;;;;16.92;13.25;;;;;;;;;;5072542;28;20230;-76
2022/03/22 11:19:21;;;;;;;15.65;13.07;;;;;;;;;;5072407;28;20214;-76
2022/03/22 11:21:49;;;;;;;13.88;11.63;;;;;;;;;;5072690;28;20206;-76
2022/03/22 11:24:24;;;;;;;18.15;11.77;;;;;;;;;;5072327;28;20194;-75
2022/03/22 11:26:53;;;;;;;16.30;11.68;;;;;;;;;;5084356;28;20214;-73
2022/03/22 11:29:25;;;;;;;14.70;12.13;;;;;;;;;;5077595;28;20235;-74
2022/03/22 11:34:41;;;;;;;16.38;13.73;;;;;;;;;;5085915;28;20580;-74
2022/03/22 11:37:10;;;;;;;19.70;14.32;;;;;;;;;;5080838;28;20226;-75
2022/03/22 11:42:27;;;;;;;15.88;13.30;;;;;;;;;;5092680;28;20209;-75
2022/03/22 11:44:56;;;;;;;19.60;14.93;;;;;;;;;;5084512;28;20670;-74
2022/03/22 11:47:25;;;;;;;17.98;14.32;;;;;;;;;;5075746;28;20226;-73
2022/03/22 11:49:54;;;;;;;16.45;14.75;;;;;;;;;;5095075;28;20197;-74
2022/03/22 11:52:24;;;;;;;18.40;14.60;;;;;;;;;;5096655;28;20726;-74
2022/03/22 11:55:06;;;;;;;17.10;14.05;;;;;;;;;;5095633;28;20202;-75
2022/03/22 11:57:42;;;;;;;17.70;13.23;;;;;;;;;;5096565;28;20621;-74
2022/03/22 12:00:11;;;;;;;15.40;9.20;;;;;;;;;;5086028;28;20222;-74
2022/03/22 12:02:41;;;;;;;13.07;9.70;;;;;;;;;;5076260;28;20599;-74
2022/03/22 12:05:10;;;;;;;13.60;9.68;;;;;;;;;;5076143;28;20198;-75
2022/03/22 12:07:41;;;;;;;15.18;9.85;;;;;;;;;;5075673;28;20230;-74
2022/03/22 12:10:12;;;;;;;12.80;8.88;;;;;;;;;;5076135;28;20282;-74
2022/03/22 12:12:43;;;;;;;14.85;9.93;;;;;;;;;;5075959;28;20206;-74
2022/03/22 12:15:12;;;;;;;12.27;8.95;;;;;;;;;;5093916;28;20202;-75
2022/03/22 12:17:41;;;;;;;12.05;10.15;;;;;;;;;;5096209;28;20263;-75
2022/03/22 12:20:11;;;;;;;13.52;10.82;;;;;;;;;;5095726;28;20758;-74
2022/03/22 12:22:41;;;;;;;17.65;11.63;;;;;;;;;;5092327;28;20679;-75
2022/03/22 12:25:12;;;;;;;13.50;10.75;;;;;;;;;;5075448;28;20209;-73
2022/03/22 12:27:50;;;;;;;14.05;10.90;;;;;;;;;;5075725;28;20226;-74
2022/03/22 12:30:20;;;;;;;13.48;10.13;;;;;;;;;;5092691;28;20196;-75
2022/03/22 12:32:50;;;;;;;14.48;10.50;;;;;;;;;;5095168;28;20202;-75
2022/03/22 12:35:19;;;;;;;16.38;10.35;;;;;;;;;;5092293;28;20576;-75
2022/03/22 12:37:48;;;;;;;16.02;11.43;;;;;;;;;;5075092;28;20238;-74
2022/03/22 12:40:18;;;;;;;15.18;11.43;;;;;;;;;;5077246;28;20222;-75
2022/03/22 12:42:49;;;;;;;14.75;10.90;;;;;;;;;;5075031;28;20248;-74
2022/03/22 12:45:18;;;;;;;14.27;10.73;;;;;;;;;;5074779;28;20209;-74
2022/03/22 12:47:48;;;;;;;16.30;12.35;;;;;;;;;;5075534;28;20233;-74
2022/03/22 12:50:17;;;;;;;18.25;11.63;;;;;;;;;;5075161;28;20283;-73
2022/03/22 12:52:46;;;;;;;18.13;12.38;;;;;;;;;;5075188;28;20614;-74
2022/03/22 12:55:16;;;;;;;14.27;11.93;;;;;;;;;;5075213;28;20275;-74
2022/03/22 12:57:48;;;;;;;15.93;12.27;;;;;;;;;;5074925;28;20214;-75
2022/03/22 13:00:25;;;;;;;15.70;12.20;;;;;;;;;;5074479;28;20226;-74
2022/03/22 13:02:54;;;;;;;20.48;12.48;;;;;;;;;;5074889;28;20207;-74
2022/03/22 13:05:28;;;;;;;16.95;12.32;;;;;;;;;;5074411;28;20206;-74
2022/03/22 13:08:16;;;;;;;18.77;12.88;;;;;;;;;;5074291;28;20229;-74
2022/03/22 13:16:23;;;;;;;16.42;11.73;;;;;;;;;;5084826;28;20248;-74
2022/03/22 13:18:52;;;;;;;17.08;12.45;;;;;;;;;;5075625;28;20207;-75
2022/03/22 13:21:24;;;;;;;18.00;12.60;;;;;;;;;;5076419;28;20214;-75
2022/03/22 13:24:02;;;;;;;18.52;14.68;;;;;;;;;;5088922;28;20206;-74
2022/03/22 13:26:32;;;;;;;15.35;10.88;;;;;;;;;;5081087;28;20245;-75
2022/03/22 13:29:09;;;;;;;16.38;11.32;;;;;;;;;;5081145;28;20641;-75
2022/03/22 13:31:38;;;;;;;15.13;10.88;;;;;;;;;;5088838;28;20689;-74
2022/03/22 13:34:06;;;;;;;16.25;10.85;;;;;;;;;;5074599;28;20201;-74
2022/03/22 13:36:35;;;;;;;15.48;11.32;;;;;;;;;;5084375;28;20280;-75
2022/03/22 13:39:05;;;;;;;15.68;10.77;;;;;;;;;;5086867;28;20224;-75
2022/03/22 13:41:33;;;;;;;15.05;10.43;;;;;;;;;;5082671;28;20198;-75
2022/03/22 13:44:03;;;;;;;17.02;11.15;;;;;;;;;;5083350;28;20334;-74
2022/03/22 13:46:32;;;;;;;18.77;11.25;;;;;;;;;;5081569;28;20226;-74
2022/03/22 13:49:00;;;;;;;14.15;11.20;;;;;;;;;;5078494;28;20202;-75
2022/03/22 13:51:30;;;;;;;14.63;10.80;;;;;;;;;;5074676;28;20202;-74
2022/03/22 13:53:59;;;;;;;14.15;10.52;;;;;;;;;;5081922;28;20228;-74
2022/03/22 13:56:32;;;;;;;17.00;11.52;;;;;;;;;;5081231;28;20579;-75
2022/03/22 13:59:01;;;;;;;14.98;10.57;;;;;;;;;;5077511;28;20207;-75
2022/03/22 14:01:31;;;;;;;12.27;9.80;;;;;;;;;;5079258;28;20566;-75
2022/03/22 14:04:00;;;;;;;17.45;10.98;;;;;;;;;;5093396;28;20204;-75
2022/03/22 14:06:28;;;;;;;14.05;10.85;;;;;;;;;;5080705;28;20740;-76
2022/03/22 14:08:57;;;;;;;17.23;11.70;;;;;;;;;;5074930;28;20206;-75
2022/03/22 14:11:26;;;;;;;16.17;10.48;;;;;;;;;;5078094;28;20252;-75
2022/03/22 14:13:56;;;;;;;12.82;9.93;;;;;;;;;;5080503;28;20202;-76
2022/03/22 14:16:24;;;;;;;13.30;10.32;;;;;;;;;;4724036;28;10000425;-74
2022/03/22 14:18:54;;;;;;;14.20;10.50;;;;;;;;;;5078559;28;20202;-74
2022/03/22 14:21:51;;;;;;;15.38;11.27;;;;;;;;;;5076337;28;20658;-74
2022/03/22 14:24:19;;;;;;;15.05;11.15;;;;;;;;;;5090065;28;20193;-75
2022/03/22 14:26:51;;;;;;;15.65;10.75;;;;;;;;;;5081964;28;20223;-75
2022/03/22 14:29:20;;;;;;;17.52;10.35;;;;;;;;;;5075589;28;20210;-74
2022/03/22 14:31:48;;;;;;;16.02;10.60;;;;;;;;;;5085952;28;20232;-74
2022/03/22 14:37:00;;;;;;;15.48;10.93;;;;;;;;;;5070512;28;20233;-74
2022/03/22 14:39:29;;;;;;;13.40;10.93;;;;;;;;;;5084108;28;20665;-74
2022/03/22 14:41:57;;;;;;;15.68;10.68;;;;;;;;;;5072426;28;20213;-74
2022/03/22 14:44:26;;;;;;;14.88;10.60;;;;;;;;;;5070811;28;20259;-74
2022/03/22 14:46:54;;;;;;;15.80;11.57;;;;;;;;;;5068321;28;20719;-74
2022/03/22 14:49:25;;;;;;;13.10;10.88;;;;;;;;;;5077109;28;20214;-75
2022/03/22 14:54:39;;;;;;;18.52;10.40;;;;;;;;;;5078880;28;20263;-74
2022/03/22 14:59:53;;;;;;;16.33;10.57;;;;;;;;;;5075813;28;20704;-74
2022/03/22 15:02:23;;;;;;;13.10;10.30;;;;;;;;;;5074226;28;20213;-74
2022/03/22 15:04:53;;;;;;;17.38;10.32;;;;;;;;;;5068826;28;20203;-74
2022/03/22 15:07:22;;;;;;;17.42;13.20;;;;;;;;;;5082622;28;20226;-74
2022/03/22 15:09:50;;;;;;;16.65;12.93;;;;;;;;;;5076815;28;20214;-73
2022/03/22 15:12:20;;;;;;;17.05;15.07;;;;;;;;;;5073695;28;20202;-73
2022/03/22 15:14:48;;;;;;;16.77;13.60;;;;;;;;;;5086425;28;20209;-75
2022/03/22 15:17:17;;;;;;;14.90;13.13;;;;;;;;;;5082303;28;20218;-76